sensor_id;sensor_type;location;lat;lon;timestamp;temperature;humidity
13711;DHT22;6927;51.256;9.410;2023-09-12T00:00:47;18.30;99.90
13711;DHT22;6927;51.256;9.410;2023-09-12T00:03:13;18.30;99.90
13711;DHT22;6927;51.256;9.410;2023-09-12T00:05:39;18.30;99.90
13711;DHT22;6927;51.256;9.410;2023-09-12T00:08:04;18.30;99.90
13711;DHT22;6927;51.256;9.410;2023-09-12T00:10:30;18.30;99.90
13711;DHT22;6927;51.256;9.410;2023-09-12T00:12:56;18.30;99.90
13711;DHT22;6927;51.256;9.410;2023-09-12T00:15:22;18.30;99.90
13711;DHT22;6927;51.256;9.410;2023-09-12T00:17:47;18.30;99.90
13711;DHT22;6927;51.256;9.410;2023-09-12T00:20:14;18.30;99.90
13711;DHT22;6927;51.256;9.410;2023-09-12T00:22:40;18.20;99.90
13711;DHT22;6927;51.256;9.410;2023-09-12T00:25:06;18.20;99.90
13711;DHT22;6927;51.256;9.410;2023-09-12T00:27:31;18.20;99.90
13711;DHT22;6927;51.256;9.410;2023-09-12T00:29:57;18.30;99.90
13711;DHT22;6927;51.256;9.410;2023-09-12T00:32:23;18.30;99.90
13711;DHT22;6927;51.256;9.410;2023-09-12T00:34:48;18.20;99.90
13711;DHT22;6927;51.256;9.410;2023-09-12T00:37:14;18.10;99.90
13711;DHT22;6927;51.256;9.410;2023-09-12T00:39:39;18.10;99.90
13711;DHT22;6927;51.256;9.410;2023-09-12T00:42:05;18.00;99.90
13711;DHT22;6927;51.256;9.410;2023-09-12T00:44:33;17.90;99.90
13711;DHT22;6927;51.256;9.410;2023-09-12T00:46:59;17.90;99.90
13711;DHT22;6927;51.256;9.410;2023-09-12T00:49:25;17.80;99.90
13711;DHT22;6927;51.256;9.410;2023-09-12T00:51:52;17.80;99.90
13711;DHT22;6927;51.256;9.410;2023-09-12T00:54:18;17.80;99.90
13711;DHT22;6927;51.256;9.410;2023-09-12T00:56:44;17.70;99.90
13711;DHT22;6927;51.256;9.410;2023-09-12T00:59:10;17.70;99.90
13711;DHT22;6927;51.256;9.410;2023-09-12T01:01:36;17.70;99.90
13711;DHT22;6927;51.256;9.410;2023-09-12T01:04:02;17.70;99.90
13711;DHT22;6927;51.256;9.410;2023-09-12T01:06:29;17.60;99.90
13711;DHT22;6927;51.256;9.410;2023-09-12T01:08:56;17.60;99.90
13711;DHT22;6927;51.256;9.410;2023-09-12T01:11:22;17.60;99.90
13711;DHT22;6927;51.256;9.410;2023-09-12T01:13:47;17.60;99.90
13711;DHT22;6927;51.256;9.410;2023-09-12T01:16:13;17.60;99.90
13711;DHT22;6927;51.256;9.410;2023-09-12T01:18:39;17.50;99.90
13711;DHT22;6927;51.256;9.410;2023-09-12T01:24:51;17.50;99.90
13711;DHT22;6927;51.256;9.410;2023-09-12T01:29:52;17.40;99.90
13711;DHT22;6927;51.256;9.410;2023-09-12T01:32:20;17.40;99.90
13711;DHT22;6927;51.256;9.410;2023-09-12T01:34:46;17.40;99.90
13711;DHT22;6927;51.256;9.410;2023-09-12T01:37:11;17.30;99.90
13711;DHT22;6927;51.256;9.410;2023-09-12T01:39:37;17.30;99.90
13711;DHT22;6927;51.256;9.410;2023-09-12T01:42:03;17.30;99.90
13711;DHT22;6927;51.256;9.410;2023-09-12T01:44:30;17.20;99.90
13711;DHT22;6927;51.256;9.410;2023-09-12T01:46:59;17.20;99.90
13711;DHT22;6927;51.256;9.410;2023-09-12T01:49:27;17.10;99.90
13711;DHT22;6927;51.256;9.410;2023-09-12T01:51:53;17.10;99.90
13711;DHT22;6927;51.256;9.410;2023-09-12T01:54:20;17.00;99.90
13711;DHT22;6927;51.256;9.410;2023-09-12T01:56:47;17.00;99.90
13711;DHT22;6927;51.256;9.410;2023-09-12T01:59:13;16.90;99.90
13711;DHT22;6927;51.256;9.410;2023-09-12T02:01:39;16.90;99.90
13711;DHT22;6927;51.256;9.410;2023-09-12T02:04:04;16.90;99.90
13711;DHT22;6927;51.256;9.410;2023-09-12T02:06:34;16.90;99.90
13711;DHT22;6927;51.256;9.410;2023-09-12T02:09:00;16.90;99.90
13711;DHT22;6927;51.256;9.410;2023-09-12T02:11:26;16.90;99.90
13711;DHT22;6927;51.256;9.410;2023-09-12T02:13:52;16.90;99.90
13711;DHT22;6927;51.256;9.410;2023-09-12T02:16:18;16.80;99.90
13711;DHT22;6927;51.256;9.410;2023-09-12T02:18:43;16.80;99.90
13711;DHT22;6927;51.256;9.410;2023-09-12T02:21:09;16.70;99.90
13711;DHT22;6927;51.256;9.410;2023-09-12T02:23:35;16.70;99.90
13711;DHT22;6927;51.256;9.410;2023-09-12T02:26:00;16.70;99.90
13711;DHT22;6927;51.256;9.410;2023-09-12T02:28:26;16.70;99.90
13711;DHT22;6927;51.256;9.410;2023-09-12T02:30:51;16.70;99.90
13711;DHT22;6927;51.256;9.410;2023-09-12T02:33:17;16.70;99.90
13711;DHT22;6927;51.256;9.410;2023-09-12T02:35:42;16.60;99.90
13711;DHT22;6927;51.256;9.410;2023-09-12T02:38:08;16.60;99.90
13711;DHT22;6927;51.256;9.410;2023-09-12T02:40:34;16.60;99.90
13711;DHT22;6927;51.256;9.410;2023-09-12T02:43:00;16.60;99.90
13711;DHT22;6927;51.256;9.410;2023-09-12T02:45:25;16.60;99.90
13711;DHT22;6927;51.256;9.410;2023-09-12T02:47:51;16.50;99.90
13711;DHT22;6927;51.256;9.410;2023-09-12T02:50:16;16.50;99.90
13711;DHT22;6927;51.256;9.410;2023-09-12T02:52:42;16.50;99.90
13711;DHT22;6927;51.256;9.410;2023-09-12T02:55:08;16.50;99.90
13711;DHT22;6927;51.256;9.410;2023-09-12T02:57:33;16.50;99.90
13711;DHT22;6927;51.256;9.410;2023-09-12T02:59:59;16.50;99.90
13711;DHT22;6927;51.256;9.410;2023-09-12T03:02:24;16.40;99.90
13711;DHT22;6927;51.256;9.410;2023-09-12T03:04:50;16.40;99.90
13711;DHT22;6927;51.256;9.410;2023-09-12T03:07:15;16.40;99.90
13711;DHT22;6927;51.256;9.410;2023-09-12T03:09:41;16.40;99.90
13711;DHT22;6927;51.256;9.410;2023-09-12T03:12:07;16.40;99.90
13711;DHT22;6927;51.256;9.410;2023-09-12T03:14:32;16.40;99.90
13711;DHT22;6927;51.256;9.410;2023-09-12T03:16:58;16.40;99.90
13711;DHT22;6927;51.256;9.410;2023-09-12T03:19:23;16.30;99.90
13711;DHT22;6927;51.256;9.410;2023-09-12T03:21:49;16.20;99.90
13711;DHT22;6927;51.256;9.410;2023-09-12T03:24:14;16.20;99.90
13711;DHT22;6927;51.256;9.410;2023-09-12T03:26:43;16.20;99.90
13711;DHT22;6927;51.256;9.410;2023-09-12T03:29:09;16.10;99.90
13711;DHT22;6927;51.256;9.410;2023-09-12T03:31:35;16.10;99.90
13711;DHT22;6927;51.256;9.410;2023-09-12T03:34:01;16.10;99.90
13711;DHT22;6927;51.256;9.410;2023-09-12T03:36:26;16.00;99.90
13711;DHT22;6927;51.256;9.410;2023-09-12T03:38:52;16.00;99.90
13711;DHT22;6927;51.256;9.410;2023-09-12T03:41:17;16.10;99.90
13711;DHT22;6927;51.256;9.410;2023-09-12T03:43:43;16.10;99.90
13711;DHT22;6927;51.256;9.410;2023-09-12T03:46:09;16.10;99.90
13711;DHT22;6927;51.256;9.410;2023-09-12T03:48:34;16.10;99.90
13711;DHT22;6927;51.256;9.410;2023-09-12T03:51:02;16.10;99.90
13711;DHT22;6927;51.256;9.410;2023-09-12T03:53:29;16.10;99.90
13711;DHT22;6927;51.256;9.410;2023-09-12T03:55:55;16.00;99.90
13711;DHT22;6927;51.256;9.410;2023-09-12T03:58:21;16.00;99.90
13711;DHT22;6927;51.256;9.410;2023-09-12T04:00:47;16.00;99.90
13711;DHT22;6927;51.256;9.410;2023-09-12T04:03:12;16.00;99.90
13711;DHT22;6927;51.256;9.410;2023-09-12T04:05:38;15.90;99.90
13711;DHT22;6927;51.256;9.410;2023-09-12T04:08:04;15.90;99.90
13711;DHT22;6927;51.256;9.410;2023-09-12T04:10:29;15.90;99.90
13711;DHT22;6927;51.256;9.410;2023-09-12T04:12:55;15.90;99.90
13711;DHT22;6927;51.256;9.410;2023-09-12T04:15:20;15.90;99.90
13711;DHT22;6927;51.256;9.410;2023-09-12T04:17:46;15.90;99.90
13711;DHT22;6927;51.256;9.410;2023-09-12T04:20:12;15.80;99.90
13711;DHT22;6927;51.256;9.410;2023-09-12T04:22:39;15.80;99.90
13711;DHT22;6927;51.256;9.410;2023-09-12T04:25:06;15.70;99.90
13711;DHT22;6927;51.256;9.410;2023-09-12T04:27:31;15.70;99.90
13711;DHT22;6927;51.256;9.410;2023-09-12T04:29:57;15.70;99.90
13711;DHT22;6927;51.256;9.410;2023-09-12T04:32:22;15.70;99.90
13711;DHT22;6927;51.256;9.410;2023-09-12T04:34:49;15.70;99.90
13711;DHT22;6927;51.256;9.410;2023-09-12T04:37:15;15.70;99.90
13711;DHT22;6927;51.256;9.410;2023-09-12T04:39:40;15.70;99.90
13711;DHT22;6927;51.256;9.410;2023-09-12T04:42:06;15.70;99.90
13711;DHT22;6927;51.256;9.410;2023-09-12T04:44:41;15.70;99.90
13711;DHT22;6927;51.256;9.410;2023-09-12T04:47:07;15.70;99.90
13711;DHT22;6927;51.256;9.410;2023-09-12T04:49:33;15.80;99.90
13711;DHT22;6927;51.256;9.410;2023-09-12T04:51:59;15.80;99.90
13711;DHT22;6927;51.256;9.410;2023-09-12T04:54:25;15.80;99.90
13711;DHT22;6927;51.256;9.410;2023-09-12T04:56:51;15.70;99.90
13711;DHT22;6927;51.256;9.410;2023-09-12T04:59:16;15.80;99.90
13711;DHT22;6927;51.256;9.410;2023-09-12T05:01:42;15.90;99.90
13711;DHT22;6927;51.256;9.410;2023-09-12T05:04:08;15.90;99.90
13711;DHT22;6927;51.256;9.410;2023-09-12T05:06:34;15.80;99.90
13711;DHT22;6927;51.256;9.410;2023-09-12T05:08:59;15.90;99.90
13711;DHT22;6927;51.256;9.410;2023-09-12T05:11:25;15.90;99.90
13711;DHT22;6927;51.256;9.410;2023-09-12T05:13:51;15.90;99.90
13711;DHT22;6927;51.256;9.410;2023-09-12T05:16:16;15.90;99.90
13711;DHT22;6927;51.256;9.410;2023-09-12T05:18:42;16.00;99.90
13711;DHT22;6927;51.256;9.410;2023-09-12T05:21:08;16.00;99.90
13711;DHT22;6927;51.256;9.410;2023-09-12T05:23:33;16.20;99.90
13711;DHT22;6927;51.256;9.410;2023-09-12T05:25:59;16.40;99.90
13711;DHT22;6927;51.256;9.410;2023-09-12T05:28:25;16.60;99.90
13711;DHT22;6927;51.256;9.410;2023-09-12T05:30:50;16.70;99.90
13711;DHT22;6927;51.256;9.410;2023-09-12T05:33:16;16.80;99.90
13711;DHT22;6927;51.256;9.410;2023-09-12T05:35:41;16.90;99.90
13711;DHT22;6927;51.256;9.410;2023-09-12T05:38:07;17.00;99.90
13711;DHT22;6927;51.256;9.410;2023-09-12T05:40:33;17.00;99.90
13711;DHT22;6927;51.256;9.410;2023-09-12T05:42:58;17.10;99.90
13711;DHT22;6927;51.256;9.410;2023-09-12T05:45:24;17.10;99.90
13711;DHT22;6927;51.256;9.410;2023-09-12T05:47:49;17.10;99.90
13711;DHT22;6927;51.256;9.410;2023-09-12T05:50:16;17.10;99.90
13711;DHT22;6927;51.256;9.410;2023-09-12T05:52:41;17.20;99.90
13711;DHT22;6927;51.256;9.410;2023-09-12T05:55:08;17.20;99.90
13711;DHT22;6927;51.256;9.410;2023-09-12T05:57:34;17.30;99.90
13711;DHT22;6927;51.256;9.410;2023-09-12T05:59:59;17.40;99.90
13711;DHT22;6927;51.256;9.410;2023-09-12T06:02:26;17.50;99.90
13711;DHT22;6927;51.256;9.410;2023-09-12T06:04:52;17.50;99.90
13711;DHT22;6927;51.256;9.410;2023-09-12T06:07:17;17.60;99.90
13711;DHT22;6927;51.256;9.410;2023-09-12T06:09:43;17.60;99.90
13711;DHT22;6927;51.256;9.410;2023-09-12T06:12:08;17.70;99.90
13711;DHT22;6927;51.256;9.410;2023-09-12T06:14:34;17.80;99.90
13711;DHT22;6927;51.256;9.410;2023-09-12T06:16:59;17.80;99.90
13711;DHT22;6927;51.256;9.410;2023-09-12T06:19:25;17.90;99.90
13711;DHT22;6927;51.256;9.410;2023-09-12T06:21:50;17.90;99.90
13711;DHT22;6927;51.256;9.410;2023-09-12T06:24:19;17.90;99.90
13711;DHT22;6927;51.256;9.410;2023-09-12T06:26:44;17.90;99.90
13711;DHT22;6927;51.256;9.410;2023-09-12T06:29:10;17.90;99.90
13711;DHT22;6927;51.256;9.410;2023-09-12T06:31:36;18.00;99.90
13711;DHT22;6927;51.256;9.410;2023-09-12T06:34:01;18.10;99.90
13711;DHT22;6927;51.256;9.410;2023-09-12T06:36:28;18.00;99.90
13711;DHT22;6927;51.256;9.410;2023-09-12T06:38:57;17.90;99.90
13711;DHT22;6927;51.256;9.410;2023-09-12T06:41:22;17.80;99.90
13711;DHT22;6927;51.256;9.410;2023-09-12T06:43:48;17.70;99.90
13711;DHT22;6927;51.256;9.410;2023-09-12T06:46:14;17.70;99.90
13711;DHT22;6927;51.256;9.410;2023-09-12T06:48:40;17.70;99.90
13711;DHT22;6927;51.256;9.410;2023-09-12T06:51:08;17.70;99.90
13711;DHT22;6927;51.256;9.410;2023-09-12T06:53:34;17.70;99.90
13711;DHT22;6927;51.256;9.410;2023-09-12T06:55:59;17.80;99.90
13711;DHT22;6927;51.256;9.410;2023-09-12T06:58:25;17.90;99.90
13711;DHT22;6927;51.256;9.410;2023-09-12T07:00:51;18.00;99.90
13711;DHT22;6927;51.256;9.410;2023-09-12T07:03:17;18.00;99.90
13711;DHT22;6927;51.256;9.410;2023-09-12T07:05:42;18.20;99.90
13711;DHT22;6927;51.256;9.410;2023-09-12T07:08:09;18.30;99.90
13711;DHT22;6927;51.256;9.410;2023-09-12T07:10:34;19.00;99.90
13711;DHT22;6927;51.256;9.410;2023-09-12T07:13:01;19.50;99.90
13711;DHT22;6927;51.256;9.410;2023-09-12T07:15:27;19.80;99.90
13711;DHT22;6927;51.256;9.410;2023-09-12T07:17:52;20.10;99.90
13711;DHT22;6927;51.256;9.410;2023-09-12T07:20:18;20.50;99.90
13711;DHT22;6927;51.256;9.410;2023-09-12T07:22:45;20.50;99.90
13711;DHT22;6927;51.256;9.410;2023-09-12T07:25:13;20.70;99.90
13711;DHT22;6927;51.256;9.410;2023-09-12T07:27:39;20.80;99.90
13711;DHT22;6927;51.256;9.410;2023-09-12T07:30:06;20.90;99.90
13711;DHT22;6927;51.256;9.410;2023-09-12T07:32:34;21.10;99.90
13711;DHT22;6927;51.256;9.410;2023-09-12T07:35:00;21.30;99.90
13711;DHT22;6927;51.256;9.410;2023-09-12T07:37:26;21.50;99.90
13711;DHT22;6927;51.256;9.410;2023-09-12T07:39:51;21.70;99.90
13711;DHT22;6927;51.256;9.410;2023-09-12T07:42:22;21.80;99.90
13711;DHT22;6927;51.256;9.410;2023-09-12T07:44:50;22.10;99.90
13711;DHT22;6927;51.256;9.410;2023-09-12T07:47:17;22.80;99.90
13711;DHT22;6927;51.256;9.410;2023-09-12T07:49:42;23.00;99.90
13711;DHT22;6927;51.256;9.410;2023-09-12T07:52:08;23.00;99.90
13711;DHT22;6927;51.256;9.410;2023-09-12T07:54:34;23.00;99.90
13711;DHT22;6927;51.256;9.410;2023-09-12T07:56:59;22.90;99.90
13711;DHT22;6927;51.256;9.410;2023-09-12T07:59:25;22.80;99.90
13711;DHT22;6927;51.256;9.410;2023-09-12T08:01:51;22.90;99.90
13711;DHT22;6927;51.256;9.410;2023-09-12T08:04:17;23.00;99.90
13711;DHT22;6927;51.256;9.410;2023-09-12T08:06:43;23.00;99.90
13711;DHT22;6927;51.256;9.410;2023-09-12T08:09:09;23.00;99.90
13711;DHT22;6927;51.256;9.410;2023-09-12T08:11:37;23.00;99.90
13711;DHT22;6927;51.256;9.410;2023-09-12T08:14:03;23.30;99.90
13711;DHT22;6927;51.256;9.410;2023-09-12T08:16:29;23.60;99.90
13711;DHT22;6927;51.256;9.410;2023-09-12T08:18:56;24.10;99.90
13711;DHT22;6927;51.256;9.410;2023-09-12T08:21:21;24.50;99.90
13711;DHT22;6927;51.256;9.410;2023-09-12T08:23:47;25.20;99.90
13711;DHT22;6927;51.256;9.410;2023-09-12T08:26:12;26.00;99.90
13711;DHT22;6927;51.256;9.410;2023-09-12T08:28:38;26.80;99.90
13711;DHT22;6927;51.256;9.410;2023-09-12T08:31:04;26.40;99.90
13711;DHT22;6927;51.256;9.410;2023-09-12T08:33:29;26.20;99.90
13711;DHT22;6927;51.256;9.410;2023-09-12T08:35:55;26.20;99.90
13711;DHT22;6927;51.256;9.410;2023-09-12T08:38:20;26.40;99.90
13711;DHT22;6927;51.256;9.410;2023-09-12T08:40:50;26.10;99.90
13711;DHT22;6927;51.256;9.410;2023-09-12T08:43:16;26.20;99.90
13711;DHT22;6927;51.256;9.410;2023-09-12T08:45:42;26.30;99.90
13711;DHT22;6927;51.256;9.410;2023-09-12T08:48:10;26.20;99.90
13711;DHT22;6927;51.256;9.410;2023-09-12T08:50:37;26.20;99.90
13711;DHT22;6927;51.256;9.410;2023-09-12T08:53:03;26.60;99.90
13711;DHT22;6927;51.256;9.410;2023-09-12T08:55:29;26.90;99.90
13711;DHT22;6927;51.256;9.410;2023-09-12T08:57:57;27.00;99.90
13711;DHT22;6927;51.256;9.410;2023-09-12T09:00:24;27.40;99.90
13711;DHT22;6927;51.256;9.410;2023-09-12T09:02:50;28.10;99.90
13711;DHT22;6927;51.256;9.410;2023-09-12T09:05:17;28.50;99.90
13711;DHT22;6927;51.256;9.410;2023-09-12T09:07:43;27.70;99.90
13711;DHT22;6927;51.256;9.410;2023-09-12T09:10:19;26.80;99.90
13711;DHT22;6927;51.256;9.410;2023-09-12T09:12:46;25.80;99.90
13711;DHT22;6927;51.256;9.410;2023-09-12T09:15:22;25.50;99.90
13711;DHT22;6927;51.256;9.410;2023-09-12T09:17:48;25.10;99.90
13711;DHT22;6927;51.256;9.410;2023-09-12T09:23:03;24.80;99.90
13711;DHT22;6927;51.256;9.410;2023-09-12T09:25:33;24.80;99.90
13711;DHT22;6927;51.256;9.410;2023-09-12T09:28:02;24.40;99.90
13711;DHT22;6927;51.256;9.410;2023-09-12T09:30:41;24.20;99.90
13711;DHT22;6927;51.256;9.410;2023-09-12T09:33:07;24.10;99.90
13711;DHT22;6927;51.256;9.410;2023-09-12T09:35:32;24.10;99.90
13711;DHT22;6927;51.256;9.410;2023-09-12T09:37:58;24.20;99.90
13711;DHT22;6927;51.256;9.410;2023-09-12T09:40:24;24.60;99.90
13711;DHT22;6927;51.256;9.410;2023-09-12T09:42:54;24.60;99.90
13711;DHT22;6927;51.256;9.410;2023-09-12T09:45:19;24.80;99.90
13711;DHT22;6927;51.256;9.410;2023-09-12T09:47:45;26.10;99.90
13711;DHT22;6927;51.256;9.410;2023-09-12T09:50:14;27.30;99.90
13711;DHT22;6927;51.256;9.410;2023-09-12T09:52:40;28.40;99.90
13711;DHT22;6927;51.256;9.410;2023-09-12T09:55:13;29.60;99.90
13711;DHT22;6927;51.256;9.410;2023-09-12T09:57:39;30.10;99.90
13711;DHT22;6927;51.256;9.410;2023-09-12T10:00:05;30.30;99.90
13711;DHT22;6927;51.256;9.410;2023-09-12T10:02:35;30.50;99.90
13711;DHT22;6927;51.256;9.410;2023-09-12T10:05:05;29.80;99.90
13711;DHT22;6927;51.256;9.410;2023-09-12T10:07:33;29.70;99.90
13711;DHT22;6927;51.256;9.410;2023-09-12T10:10:02;29.00;99.90
13711;DHT22;6927;51.256;9.410;2023-09-12T10:12:28;29.00;99.90
13711;DHT22;6927;51.256;9.410;2023-09-12T10:14:58;29.30;99.90
13711;DHT22;6927;51.256;9.410;2023-09-12T10:17:30;29.10;99.90
13711;DHT22;6927;51.256;9.410;2023-09-12T10:19:59;28.20;99.90
13711;DHT22;6927;51.256;9.410;2023-09-12T10:22:38;27.70;99.90
13711;DHT22;6927;51.256;9.410;2023-09-12T10:25:05;27.50;99.90
13711;DHT22;6927;51.256;9.410;2023-09-12T10:27:33;27.70;99.90
13711;DHT22;6927;51.256;9.410;2023-09-12T10:30:03;27.50;99.90
13711;DHT22;6927;51.256;9.410;2023-09-12T10:32:35;27.80;99.90
13711;DHT22;6927;51.256;9.410;2023-09-12T10:35:02;27.80;99.90
13711;DHT22;6927;51.256;9.410;2023-09-12T10:37:29;27.20;99.90
13711;DHT22;6927;51.256;9.410;2023-09-12T10:39:58;27.20;99.90
13711;DHT22;6927;51.256;9.410;2023-09-12T10:42:27;27.40;99.90
13711;DHT22;6927;51.256;9.410;2023-09-12T10:44:54;27.30;99.90
13711;DHT22;6927;51.256;9.410;2023-09-12T10:47:20;26.60;99.90
13711;DHT22;6927;51.256;9.410;2023-09-12T10:49:47;26.10;99.90
13711;DHT22;6927;51.256;9.410;2023-09-12T10:52:26;26.00;99.90
13711;DHT22;6927;51.256;9.410;2023-09-12T10:54:52;26.00;99.90
13711;DHT22;6927;51.256;9.410;2023-09-12T10:57:18;26.50;99.90
13711;DHT22;6927;51.256;9.410;2023-09-12T11:02:35;27.20;99.90
13711;DHT22;6927;51.256;9.410;2023-09-12T11:05:05;26.60;99.90
13711;DHT22;6927;51.256;9.410;2023-09-12T11:12:52;27.20;99.90
13711;DHT22;6927;51.256;9.410;2023-09-12T11:15:20;27.20;99.90
13711;DHT22;6927;51.256;9.410;2023-09-12T11:17:48;27.20;99.90
13711;DHT22;6927;51.256;9.410;2023-09-12T11:20:15;27.40;99.90
13711;DHT22;6927;51.256;9.410;2023-09-12T11:22:45;27.50;99.90
13711;DHT22;6927;51.256;9.410;2023-09-12T11:25:18;28.10;99.90
13711;DHT22;6927;51.256;9.410;2023-09-12T11:30:23;29.50;99.90
13711;DHT22;6927;51.256;9.410;2023-09-12T11:32:53;29.40;99.90
13711;DHT22;6927;51.256;9.410;2023-09-12T11:35:38;29.30;99.90
13711;DHT22;6927;51.256;9.410;2023-09-12T11:38:10;29.10;99.90
13711;DHT22;6927;51.256;9.410;2023-09-12T11:43:02;28.90;99.90
13711;DHT22;6927;51.256;9.410;2023-09-12T11:45:28;28.40;99.90
13711;DHT22;6927;51.256;9.410;2023-09-12T11:47:54;27.80;99.90
13711;DHT22;6927;51.256;9.410;2023-09-12T11:50:33;27.70;99.90
13711;DHT22;6927;51.256;9.410;2023-09-12T11:53:04;28.20;99.90
13711;DHT22;6927;51.256;9.410;2023-09-12T11:55:32;28.30;99.90
13711;DHT22;6927;51.256;9.410;2023-09-12T11:57:58;28.80;99.90
13711;DHT22;6927;51.256;9.410;2023-09-12T12:00:23;29.50;99.90
13711;DHT22;6927;51.256;9.410;2023-09-12T12:02:52;30.10;99.90
13711;DHT22;6927;51.256;9.410;2023-09-12T12:05:17;30.30;99.90
13711;DHT22;6927;51.256;9.410;2023-09-12T12:07:43;30.10;99.90
13711;DHT22;6927;51.256;9.410;2023-09-12T12:10:12;29.20;99.90
13711;DHT22;6927;51.256;9.410;2023-09-12T12:12:37;28.70;99.90
13711;DHT22;6927;51.256;9.410;2023-09-12T12:15:03;28.40;99.90
13711;DHT22;6927;51.256;9.410;2023-09-12T12:17:29;28.10;99.90
13711;DHT22;6927;51.256;9.410;2023-09-12T12:19:54;28.40;99.90
13711;DHT22;6927;51.256;9.410;2023-09-12T12:22:21;28.70;99.90
13711;DHT22;6927;51.256;9.410;2023-09-12T12:24:48;28.70;99.90
13711;DHT22;6927;51.256;9.410;2023-09-12T12:27:15;28.20;99.90
13711;DHT22;6927;51.256;9.410;2023-09-12T12:29:41;27.90;99.90
13711;DHT22;6927;51.256;9.410;2023-09-12T12:32:10;27.80;99.90
13711;DHT22;6927;51.256;9.410;2023-09-12T12:34:36;28.00;99.90
13711;DHT22;6927;51.256;9.410;2023-09-12T12:37:03;27.90;99.90
13711;DHT22;6927;51.256;9.410;2023-09-12T12:39:29;27.70;99.90
13711;DHT22;6927;51.256;9.410;2023-09-12T12:41:55;27.50;99.90
13711;DHT22;6927;51.256;9.410;2023-09-12T12:44:21;27.60;99.90
13711;DHT22;6927;51.256;9.410;2023-09-12T12:46:51;27.60;99.90
13711;DHT22;6927;51.256;9.410;2023-09-12T12:49:18;27.30;99.90
13711;DHT22;6927;51.256;9.410;2023-09-12T12:51:44;27.20;99.90
13711;DHT22;6927;51.256;9.410;2023-09-12T12:54:10;27.10;99.90
13711;DHT22;6927;51.256;9.410;2023-09-12T12:56:36;27.10;99.90
13711;DHT22;6927;51.256;9.410;2023-09-12T12:59:05;27.10;99.90
13711;DHT22;6927;51.256;9.410;2023-09-12T13:01:33;27.30;99.90
13711;DHT22;6927;51.256;9.410;2023-09-12T13:03:59;27.40;99.90
13711;DHT22;6927;51.256;9.410;2023-09-12T13:06:25;27.60;99.90
13711;DHT22;6927;51.256;9.410;2023-09-12T13:08:53;27.50;99.90
13711;DHT22;6927;51.256;9.410;2023-09-12T13:11:19;27.70;99.90
13711;DHT22;6927;51.256;9.410;2023-09-12T13:13:45;28.00;99.90
13711;DHT22;6927;51.256;9.410;2023-09-12T13:16:13;28.20;99.90
13711;DHT22;6927;51.256;9.410;2023-09-12T13:18:39;28.20;99.90
13711;DHT22;6927;51.256;9.410;2023-09-12T13:21:06;27.90;99.90
13711;DHT22;6927;51.256;9.410;2023-09-12T13:23:34;27.90;99.90
13711;DHT22;6927;51.256;9.410;2023-09-12T13:26:00;28.40;99.90
13711;DHT22;6927;51.256;9.410;2023-09-12T13:28:26;28.90;99.90
13711;DHT22;6927;51.256;9.410;2023-09-12T13:30:55;29.30;99.90
13711;DHT22;6927;51.256;9.410;2023-09-12T13:33:21;29.30;99.90
13711;DHT22;6927;51.256;9.410;2023-09-12T13:35:48;28.70;99.90
13711;DHT22;6927;51.256;9.410;2023-09-12T13:38:13;28.00;99.90
13711;DHT22;6927;51.256;9.410;2023-09-12T13:40:39;28.00;99.90
13711;DHT22;6927;51.256;9.410;2023-09-12T13:43:09;28.50;99.90
13711;DHT22;6927;51.256;9.410;2023-09-12T13:45:35;28.70;99.90
13711;DHT22;6927;51.256;9.410;2023-09-12T13:48:04;29.40;99.90
13711;DHT22;6927;51.256;9.410;2023-09-12T13:50:30;30.00;99.90
13711;DHT22;6927;51.256;9.410;2023-09-12T13:53:00;29.90;99.90
13711;DHT22;6927;51.256;9.410;2023-09-12T13:55:29;29.90;99.90
13711;DHT22;6927;51.256;9.410;2023-09-12T13:57:55;30.20;99.90
13711;DHT22;6927;51.256;9.410;2023-09-12T14:00:20;29.80;99.90
13711;DHT22;6927;51.256;9.410;2023-09-12T14:02:46;29.20;99.90
13711;DHT22;6927;51.256;9.410;2023-09-12T14:05:12;28.80;99.90
13711;DHT22;6927;51.256;9.410;2023-09-12T14:07:38;28.50;99.90
13711;DHT22;6927;51.256;9.410;2023-09-12T14:10:09;28.20;99.90
13711;DHT22;6927;51.256;9.410;2023-09-12T14:12:34;28.00;99.90
13711;DHT22;6927;51.256;9.410;2023-09-12T14:15:01;28.10;99.90
13711;DHT22;6927;51.256;9.410;2023-09-12T14:17:26;27.90;99.90
13711;DHT22;6927;51.256;9.410;2023-09-12T14:19:54;27.50;99.90
13711;DHT22;6927;51.256;9.410;2023-09-12T14:22:20;27.20;99.90
13711;DHT22;6927;51.256;9.410;2023-09-12T14:24:46;27.10;99.90
13711;DHT22;6927;51.256;9.410;2023-09-12T14:27:12;27.30;99.90
13711;DHT22;6927;51.256;9.410;2023-09-12T14:29:38;27.60;99.90
13711;DHT22;6927;51.256;9.410;2023-09-12T14:32:03;27.80;99.90
13711;DHT22;6927;51.256;9.410;2023-09-12T14:34:29;27.90;99.90
13711;DHT22;6927;51.256;9.410;2023-09-12T14:36:57;28.00;99.90
13711;DHT22;6927;51.256;9.410;2023-09-12T14:39:23;28.10;99.90
13711;DHT22;6927;51.256;9.410;2023-09-12T14:41:49;28.10;99.90
13711;DHT22;6927;51.256;9.410;2023-09-12T14:44:21;28.00;99.90
13711;DHT22;6927;51.256;9.410;2023-09-12T14:46:46;28.40;99.90
13711;DHT22;6927;51.256;9.410;2023-09-12T14:49:12;28.80;99.90
13711;DHT22;6927;51.256;9.410;2023-09-12T14:51:38;29.10;99.90
13711;DHT22;6927;51.256;9.410;2023-09-12T14:54:03;29.10;99.90
13711;DHT22;6927;51.256;9.410;2023-09-12T14:56:33;28.90;99.90
13711;DHT22;6927;51.256;9.410;2023-09-12T14:59:00;28.50;99.90
13711;DHT22;6927;51.256;9.410;2023-09-12T15:01:26;27.90;99.90
13711;DHT22;6927;51.256;9.410;2023-09-12T15:03:52;27.40;99.90
13711;DHT22;6927;51.256;9.410;2023-09-12T15:06:18;27.10;99.90
13711;DHT22;6927;51.256;9.410;2023-09-12T15:08:43;26.90;99.90
13711;DHT22;6927;51.256;9.410;2023-09-12T15:11:09;26.80;99.90
13711;DHT22;6927;51.256;9.410;2023-09-12T15:13:36;26.60;99.90
13711;DHT22;6927;51.256;9.410;2023-09-12T15:16:02;26.40;99.90
13711;DHT22;6927;51.256;9.410;2023-09-12T15:18:28;26.40;99.90
13711;DHT22;6927;51.256;9.410;2023-09-12T15:20:54;26.20;99.90
13711;DHT22;6927;51.256;9.410;2023-09-12T15:23:20;26.20;99.90
13711;DHT22;6927;51.256;9.410;2023-09-12T15:25:51;26.20;99.90
13711;DHT22;6927;51.256;9.410;2023-09-12T15:28:17;26.20;99.90
13711;DHT22;6927;51.256;9.410;2023-09-12T15:30:43;26.10;99.90
13711;DHT22;6927;51.256;9.410;2023-09-12T15:33:09;26.20;99.90
13711;DHT22;6927;51.256;9.410;2023-09-12T15:35:34;26.50;99.90
13711;DHT22;6927;51.256;9.410;2023-09-12T15:38:00;26.80;99.90
13711;DHT22;6927;51.256;9.410;2023-09-12T15:40:26;27.10;99.90
13711;DHT22;6927;51.256;9.410;2023-09-12T15:42:52;27.00;99.90
13711;DHT22;6927;51.256;9.410;2023-09-12T15:45:18;26.70;99.90
13711;DHT22;6927;51.256;9.410;2023-09-12T15:47:45;26.60;99.90
13711;DHT22;6927;51.256;9.410;2023-09-12T15:50:11;26.40;99.90
13711;DHT22;6927;51.256;9.410;2023-09-12T15:52:37;26.20;99.90
13711;DHT22;6927;51.256;9.410;2023-09-12T15:55:06;26.10;99.90
13711;DHT22;6927;51.256;9.410;2023-09-12T15:57:32;26.10;99.90
13711;DHT22;6927;51.256;9.410;2023-09-12T15:59:57;25.90;99.90
13711;DHT22;6927;51.256;9.410;2023-09-12T16:02:23;25.80;99.90